Terminal Aerodrome Forecast
Issued by NWS

Home | Current Version | Previous Version | Text Only | Print | Product List | Glossary On
Versions: 1 2 3 4 5 6 7 8 9 10 11 12 13 14 15 16 17 18 19 20 21 22 23 24 25 26 27 28 29 30 31 32 33 34 35
000
FTUS43 KLSX 281930 AAA
TAFUIN
TAF AMD
KUIN 281930Z 2820/2918 27012G18KT P6SM SCT030 OVC035
      TEMPO 2820/2821 BKN030
     FM290000 28006KT P6SM BKN035
     FM290900 35006KT 4SM BR OVC010
     FM291600 03006KT P6SM OVC025=

USA.gov is the U.S. government's official web portal to all federal, state and local government web resources and services.